sensor_id;sensor_type;location;lat;lon;timestamp;P1;durP1;ratioP1;P2;durP2;ratioP2
23988;SDS011;12202;52.136;5.592;2023-02-28T00:00:50;17.05;;;6.65;;
23988;SDS011;12202;52.136;5.592;2023-02-28T00:03:16;14.73;;;7.00;;
23988;SDS011;12202;52.136;5.592;2023-02-28T00:05:42;14.27;;;7.05;;
23988;SDS011;12202;52.136;5.592;2023-02-28T00:08:08;23.02;;;7.75;;
23988;SDS011;12202;52.136;5.592;2023-02-28T00:10:34;22.10;;;7.90;;
23988;SDS011;12202;52.136;5.592;2023-02-28T00:13:02;15.98;;;6.80;;
23988;SDS011;12202;52.136;5.592;2023-02-28T00:15:29;20.67;;;7.05;;
23988;SDS011;12202;52.136;5.592;2023-02-28T00:17:55;12.93;;;6.47;;
23988;SDS011;12202;52.136;5.592;2023-02-28T00:20:21;18.67;;;7.43;;
23988;SDS011;12202;52.136;5.592;2023-02-28T00:22:48;18.65;;;7.53;;
23988;SDS011;12202;52.136;5.592;2023-02-28T00:25:16;13.43;;;6.47;;
23988;SDS011;12202;52.136;5.592;2023-02-28T00:27:42;15.05;;;7.03;;
23988;SDS011;12202;52.136;5.592;2023-02-28T00:30:09;23.60;;;6.90;;
23988;SDS011;12202;52.136;5.592;2023-02-28T00:32:36;13.85;;;6.15;;
23988;SDS011;12202;52.136;5.592;2023-02-28T00:35:02;22.60;;;5.90;;
23988;SDS011;12202;52.136;5.592;2023-02-28T00:37:28;17.45;;;6.15;;
23988;SDS011;12202;52.136;5.592;2023-02-28T00:39:54;16.05;;;6.20;;
23988;SDS011;12202;52.136;5.592;2023-02-28T00:42:20;16.50;;;6.85;;
23988;SDS011;12202;52.136;5.592;2023-02-28T00:44:46;10.50;;;5.53;;
23988;SDS011;12202;52.136;5.592;2023-02-28T00:47:12;16.67;;;6.18;;
23988;SDS011;12202;52.136;5.592;2023-02-28T00:49:39;18.77;;;6.32;;
23988;SDS011;12202;52.136;5.592;2023-02-28T00:52:05;16.08;;;6.18;;
23988;SDS011;12202;52.136;5.592;2023-02-28T00:54:31;18.17;;;5.90;;
23988;SDS011;12202;52.136;5.592;2023-02-28T00:56:57;12.75;;;5.70;;
23988;SDS011;12202;52.136;5.592;2023-02-28T00:59:23;14.77;;;7.03;;
23988;SDS011;12202;52.136;5.592;2023-02-28T01:01:49;14.75;;;6.68;;
23988;SDS011;12202;52.136;5.592;2023-02-28T01:04:15;13.57;;;6.38;;
23988;SDS011;12202;52.136;5.592;2023-02-28T01:06:41;22.65;;;7.05;;
23988;SDS011;12202;52.136;5.592;2023-02-28T01:09:07;18.15;;;5.95;;
23988;SDS011;12202;52.136;5.592;2023-02-28T01:11:33;13.80;;;5.43;;
23988;SDS011;12202;52.136;5.592;2023-02-28T01:13:59;15.18;;;6.55;;
23988;SDS011;12202;52.136;5.592;2023-02-28T01:16:25;18.52;;;6.25;;
23988;SDS011;12202;52.136;5.592;2023-02-28T01:18:51;15.48;;;6.40;;
23988;SDS011;12202;52.136;5.592;2023-02-28T01:21:18;13.95;;;6.03;;
23988;SDS011;12202;52.136;5.592;2023-02-28T01:23:45;16.95;;;6.72;;
23988;SDS011;12202;52.136;5.592;2023-02-28T01:26:15;14.68;;;5.93;;
23988;SDS011;12202;52.136;5.592;2023-02-28T01:28:41;14.02;;;6.32;;
23988;SDS011;12202;52.136;5.592;2023-02-28T01:31:08;16.83;;;7.70;;
23988;SDS011;12202;52.136;5.592;2023-02-28T01:33:34;16.17;;;6.28;;
23988;SDS011;12202;52.136;5.592;2023-02-28T01:36:01;13.93;;;6.55;;
23988;SDS011;12202;52.136;5.592;2023-02-28T01:38:44;15.30;;;5.78;;
23988;SDS011;12202;52.136;5.592;2023-02-28T01:41:17;10.98;;;6.35;;
23988;SDS011;12202;52.136;5.592;2023-02-28T01:44:07;16.27;;;6.22;;
23988;SDS011;12202;52.136;5.592;2023-02-28T01:46:51;17.25;;;6.82;;
23988;SDS011;12202;52.136;5.592;2023-02-28T01:49:17;12.82;;;5.68;;
23988;SDS011;12202;52.136;5.592;2023-02-28T01:51:47;17.77;;;6.22;;
23988;SDS011;12202;52.136;5.592;2023-02-28T01:54:18;10.68;;;6.30;;
23988;SDS011;12202;52.136;5.592;2023-02-28T01:56:46;14.85;;;6.55;;
23988;SDS011;12202;52.136;5.592;2023-02-28T01:59:14;15.18;;;6.40;;
23988;SDS011;12202;52.136;5.592;2023-02-28T02:01:40;12.85;;;6.45;;
23988;SDS011;12202;52.136;5.592;2023-02-28T02:04:07;13.60;;;6.28;;
23988;SDS011;12202;52.136;5.592;2023-02-28T02:06:43;13.85;;;7.20;;
23988;SDS011;12202;52.136;5.592;2023-02-28T02:09:10;16.33;;;6.47;;
23988;SDS011;12202;52.136;5.592;2023-02-28T02:11:36;12.25;;;6.78;;
23988;SDS011;12202;52.136;5.592;2023-02-28T02:14:07;12.93;;;6.45;;
23988;SDS011;12202;52.136;5.592;2023-02-28T02:19:19;18.23;;;8.43;;
23988;SDS011;12202;52.136;5.592;2023-02-28T02:40:14;12.80;;;6.47;;
23988;SDS011;12202;52.136;5.592;2023-02-28T02:42:51;14.85;;;6.90;;
23988;SDS011;12202;52.136;5.592;2023-02-28T02:47:46;16.90;;;6.70;;
23988;SDS011;12202;52.136;5.592;2023-02-28T02:50:15;20.05;;;8.38;;
23988;SDS011;12202;52.136;5.592;2023-02-28T02:52:44;15.07;;;6.97;;
23988;SDS011;12202;52.136;5.592;2023-02-28T02:55:13;13.75;;;6.20;;
23988;SDS011;12202;52.136;5.592;2023-02-28T02:57:51;15.15;;;6.63;;
23988;SDS011;12202;52.136;5.592;2023-02-28T03:00:18;11.75;;;7.00;;
23988;SDS011;12202;52.136;5.592;2023-02-28T03:02:45;16.70;;;6.70;;
23988;SDS011;12202;52.136;5.592;2023-02-28T03:05:15;13.00;;;6.90;;
23988;SDS011;12202;52.136;5.592;2023-02-28T03:07:44;14.20;;;6.28;;
23988;SDS011;12202;52.136;5.592;2023-02-28T03:13:14;14.88;;;7.05;;
23988;SDS011;12202;52.136;5.592;2023-02-28T03:18:32;15.35;;;7.03;;
23988;SDS011;12202;52.136;5.592;2023-02-28T03:21:04;15.73;;;7.20;;
23988;SDS011;12202;52.136;5.592;2023-02-28T03:23:36;13.32;;;6.45;;
23988;SDS011;12202;52.136;5.592;2023-02-28T03:26:06;18.15;;;7.22;;
23988;SDS011;12202;52.136;5.592;2023-02-28T03:31:19;12.65;;;6.80;;
23988;SDS011;12202;52.136;5.592;2023-02-28T03:33:48;15.95;;;7.50;;
23988;SDS011;12202;52.136;5.592;2023-02-28T03:36:20;15.50;;;7.43;;
23988;SDS011;12202;52.136;5.592;2023-02-28T03:38:53;16.60;;;8.05;;
23988;SDS011;12202;52.136;5.592;2023-02-28T03:41:25;15.57;;;7.43;;
23988;SDS011;12202;52.136;5.592;2023-02-28T03:43:55;12.75;;;7.00;;
23988;SDS011;12202;52.136;5.592;2023-02-28T03:46:26;13.80;;;7.82;;
23988;SDS011;12202;52.136;5.592;2023-02-28T03:49:03;15.07;;;8.38;;
23988;SDS011;12202;52.136;5.592;2023-02-28T03:51:31;18.02;;;8.13;;
23988;SDS011;12202;52.136;5.592;2023-02-28T03:53:59;19.33;;;9.80;;
23988;SDS011;12202;52.136;5.592;2023-02-28T03:56:33;18.95;;;9.25;;
23988;SDS011;12202;52.136;5.592;2023-02-28T03:59:20;14.65;;;8.60;;
23988;SDS011;12202;52.136;5.592;2023-02-28T04:01:48;23.50;;;9.18;;
23988;SDS011;12202;52.136;5.592;2023-02-28T04:04:15;15.63;;;7.90;;
23988;SDS011;12202;52.136;5.592;2023-02-28T04:06:42;34.45;;;9.30;;
23988;SDS011;12202;52.136;5.592;2023-02-28T04:09:09;20.48;;;10.10;;
23988;SDS011;12202;52.136;5.592;2023-02-28T04:11:38;13.75;;;7.30;;
23988;SDS011;12202;52.136;5.592;2023-02-28T04:14:04;15.68;;;7.97;;
23988;SDS011;12202;52.136;5.592;2023-02-28T04:16:31;13.13;;;7.32;;
23988;SDS011;12202;52.136;5.592;2023-02-28T04:18:57;13.18;;;7.55;;
23988;SDS011;12202;52.136;5.592;2023-02-28T04:21:30;17.85;;;7.28;;
23988;SDS011;12202;52.136;5.592;2023-02-28T04:23:56;11.65;;;6.93;;
23988;SDS011;12202;52.136;5.592;2023-02-28T04:26:32;10.50;;;7.28;;
23988;SDS011;12202;52.136;5.592;2023-02-28T04:28:58;10.77;;;6.55;;
23988;SDS011;12202;52.136;5.592;2023-02-28T04:31:24;13.13;;;7.45;;
23988;SDS011;12202;52.136;5.592;2023-02-28T04:33:50;15.70;;;6.95;;
23988;SDS011;12202;52.136;5.592;2023-02-28T04:36:16;12.25;;;6.45;;
23988;SDS011;12202;52.136;5.592;2023-02-28T04:38:43;13.90;;;7.07;;
23988;SDS011;12202;52.136;5.592;2023-02-28T04:41:10;11.30;;;6.30;;
23988;SDS011;12202;52.136;5.592;2023-02-28T04:43:36;17.38;;;7.00;;
23988;SDS011;12202;52.136;5.592;2023-02-28T04:46:03;12.77;;;6.22;;
23988;SDS011;12202;52.136;5.592;2023-02-28T04:48:30;10.32;;;6.15;;
23988;SDS011;12202;52.136;5.592;2023-02-28T04:51:07;14.27;;;6.57;;
23988;SDS011;12202;52.136;5.592;2023-02-28T04:53:34;15.30;;;6.78;;
23988;SDS011;12202;52.136;5.592;2023-02-28T04:56:00;13.73;;;6.78;;
23988;SDS011;12202;52.136;5.592;2023-02-28T04:58:26;10.93;;;6.00;;
23988;SDS011;12202;52.136;5.592;2023-02-28T05:00:53;11.15;;;6.20;;
23988;SDS011;12202;52.136;5.592;2023-02-28T05:03:19;10.55;;;5.63;;
23988;SDS011;12202;52.136;5.592;2023-02-28T05:05:48;13.25;;;6.95;;
23988;SDS011;12202;52.136;5.592;2023-02-28T05:08:14;12.45;;;5.78;;
23988;SDS011;12202;52.136;5.592;2023-02-28T05:10:40;15.60;;;6.22;;
23988;SDS011;12202;52.136;5.592;2023-02-28T05:13:06;10.98;;;6.20;;
23988;SDS011;12202;52.136;5.592;2023-02-28T05:15:32;9.45;;;6.20;;
23988;SDS011;12202;52.136;5.592;2023-02-28T05:17:58;12.52;;;5.38;;
23988;SDS011;12202;52.136;5.592;2023-02-28T05:20:24;12.10;;;6.30;;
23988;SDS011;12202;52.136;5.592;2023-02-28T05:22:50;12.88;;;6.40;;
23988;SDS011;12202;52.136;5.592;2023-02-28T05:25:18;12.35;;;6.35;;
23988;SDS011;12202;52.136;5.592;2023-02-28T05:27:45;12.82;;;5.63;;
23988;SDS011;12202;52.136;5.592;2023-02-28T05:30:11;13.20;;;6.88;;
23988;SDS011;12202;52.136;5.592;2023-02-28T05:32:37;14.63;;;6.47;;
23988;SDS011;12202;52.136;5.592;2023-02-28T05:35:03;8.25;;;5.65;;
23988;SDS011;12202;52.136;5.592;2023-02-28T05:37:29;10.10;;;6.15;;
23988;SDS011;12202;52.136;5.592;2023-02-28T05:39:55;12.63;;;6.90;;
23988;SDS011;12202;52.136;5.592;2023-02-28T05:42:21;12.32;;;6.57;;
23988;SDS011;12202;52.136;5.592;2023-02-28T05:44:47;12.52;;;7.00;;
23988;SDS011;12202;52.136;5.592;2023-02-28T05:47:13;12.38;;;6.60;;
23988;SDS011;12202;52.136;5.592;2023-02-28T05:49:40;14.48;;;7.45;;
23988;SDS011;12202;52.136;5.592;2023-02-28T05:52:06;10.10;;;6.28;;
23988;SDS011;12202;52.136;5.592;2023-02-28T05:54:33;14.48;;;6.30;;
23988;SDS011;12202;52.136;5.592;2023-02-28T05:57:02;14.07;;;7.72;;
23988;SDS011;12202;52.136;5.592;2023-02-28T05:59:28;12.70;;;6.88;;
23988;SDS011;12202;52.136;5.592;2023-02-28T06:01:54;13.57;;;7.15;;
23988;SDS011;12202;52.136;5.592;2023-02-28T06:04:20;16.33;;;7.28;;
23988;SDS011;12202;52.136;5.592;2023-02-28T06:06:47;10.07;;;6.57;;
23988;SDS011;12202;52.136;5.592;2023-02-28T06:09:28;9.85;;;6.93;;
23988;SDS011;12202;52.136;5.592;2023-02-28T06:11:57;13.55;;;7.35;;
23988;SDS011;12202;52.136;5.592;2023-02-28T06:14:23;12.82;;;7.07;;
23988;SDS011;12202;52.136;5.592;2023-02-28T06:16:49;13.75;;;7.03;;
23988;SDS011;12202;52.136;5.592;2023-02-28T06:19:15;12.20;;;7.38;;
23988;SDS011;12202;52.136;5.592;2023-02-28T06:21:41;10.25;;;6.70;;
23988;SDS011;12202;52.136;5.592;2023-02-28T06:24:07;13.10;;;6.40;;
23988;SDS011;12202;52.136;5.592;2023-02-28T06:26:33;11.65;;;6.72;;
23988;SDS011;12202;52.136;5.592;2023-02-28T06:28:59;11.27;;;6.68;;
23988;SDS011;12202;52.136;5.592;2023-02-28T06:31:26;13.10;;;7.00;;
23988;SDS011;12202;52.136;5.592;2023-02-28T06:33:54;14.70;;;8.30;;
23988;SDS011;12202;52.136;5.592;2023-02-28T06:36:20;10.75;;;7.47;;
23988;SDS011;12202;52.136;5.592;2023-02-28T06:38:46;15.23;;;7.78;;
23988;SDS011;12202;52.136;5.592;2023-02-28T06:41:16;20.02;;;7.82;;
23988;SDS011;12202;52.136;5.592;2023-02-28T06:43:42;18.55;;;8.60;;
23988;SDS011;12202;52.136;5.592;2023-02-28T06:46:10;13.57;;;7.55;;
23988;SDS011;12202;52.136;5.592;2023-02-28T06:48:37;15.80;;;8.30;;
23988;SDS011;12202;52.136;5.592;2023-02-28T06:53:29;15.43;;;7.38;;
23988;SDS011;12202;52.136;5.592;2023-02-28T06:55:55;11.63;;;6.80;;
23988;SDS011;12202;52.136;5.592;2023-02-28T06:58:21;16.35;;;7.88;;
23988;SDS011;12202;52.136;5.592;2023-02-28T07:00:50;11.18;;;7.25;;
23988;SDS011;12202;52.136;5.592;2023-02-28T07:03:16;14.30;;;8.05;;
23988;SDS011;12202;52.136;5.592;2023-02-28T07:05:43;12.32;;;7.60;;
23988;SDS011;12202;52.136;5.592;2023-02-28T07:08:09;13.18;;;7.68;;
23988;SDS011;12202;52.136;5.592;2023-02-28T07:10:36;12.27;;;7.97;;
23988;SDS011;12202;52.136;5.592;2023-02-28T07:13:03;13.75;;;7.53;;
23988;SDS011;12202;52.136;5.592;2023-02-28T07:15:29;13.55;;;7.88;;
23988;SDS011;12202;52.136;5.592;2023-02-28T07:17:55;16.67;;;8.50;;
23988;SDS011;12202;52.136;5.592;2023-02-28T07:20:21;22.95;;;8.95;;
23988;SDS011;12202;52.136;5.592;2023-02-28T07:22:48;18.02;;;9.20;;
23988;SDS011;12202;52.136;5.592;2023-02-28T07:25:20;17.88;;;9.20;;
23988;SDS011;12202;52.136;5.592;2023-02-28T07:27:46;19.42;;;10.38;;
23988;SDS011;12202;52.136;5.592;2023-02-28T07:30:12;13.60;;;9.60;;
23988;SDS011;12202;52.136;5.592;2023-02-28T07:32:38;18.63;;;12.13;;
23988;SDS011;12202;52.136;5.592;2023-02-28T07:35:04;20.92;;;10.10;;
23988;SDS011;12202;52.136;5.592;2023-02-28T07:37:30;15.02;;;10.48;;
23988;SDS011;12202;52.136;5.592;2023-02-28T07:40:03;19.05;;;11.10;;
23988;SDS011;12202;52.136;5.592;2023-02-28T07:42:32;56.78;;;21.08;;
23988;SDS011;12202;52.136;5.592;2023-02-28T07:44:58;66.75;;;25.60;;
23988;SDS011;12202;52.136;5.592;2023-02-28T07:47:24;56.13;;;23.77;;
23988;SDS011;12202;52.136;5.592;2023-02-28T07:49:50;33.90;;;15.90;;
23988;SDS011;12202;52.136;5.592;2023-02-28T07:52:16;21.60;;;12.00;;
23988;SDS011;12202;52.136;5.592;2023-02-28T07:54:42;24.83;;;11.68;;
23988;SDS011;12202;52.136;5.592;2023-02-28T07:57:08;17.38;;;9.93;;
23988;SDS011;12202;52.136;5.592;2023-02-28T07:59:34;18.80;;;9.73;;
23988;SDS011;12202;52.136;5.592;2023-02-28T08:02:00;17.33;;;9.75;;
23988;SDS011;12202;52.136;5.592;2023-02-28T08:04:26;17.55;;;9.75;;
23988;SDS011;12202;52.136;5.592;2023-02-28T08:06:54;14.25;;;9.65;;
23988;SDS011;12202;52.136;5.592;2023-02-28T08:09:23;18.42;;;9.20;;
23988;SDS011;12202;52.136;5.592;2023-02-28T08:11:49;15.90;;;10.45;;
23988;SDS011;12202;52.136;5.592;2023-02-28T08:14:14;18.92;;;11.10;;
23988;SDS011;12202;52.136;5.592;2023-02-28T08:16:41;20.65;;;12.18;;
23988;SDS011;12202;52.136;5.592;2023-02-28T08:19:08;24.02;;;11.20;;
23988;SDS011;12202;52.136;5.592;2023-02-28T08:21:34;16.38;;;9.98;;
23988;SDS011;12202;52.136;5.592;2023-02-28T08:24:00;25.23;;;13.32;;
23988;SDS011;12202;52.136;5.592;2023-02-28T08:26:26;23.45;;;12.63;;
23988;SDS011;12202;52.136;5.592;2023-02-28T08:28:52;15.73;;;9.65;;
23988;SDS011;12202;52.136;5.592;2023-02-28T08:31:18;16.55;;;9.43;;
23988;SDS011;12202;52.136;5.592;2023-02-28T08:33:45;19.48;;;10.32;;
23988;SDS011;12202;52.136;5.592;2023-02-28T08:36:13;17.40;;;9.35;;
23988;SDS011;12202;52.136;5.592;2023-02-28T08:38:40;12.75;;;7.95;;
23988;SDS011;12202;52.136;5.592;2023-02-28T08:41:07;16.23;;;8.35;;
23988;SDS011;12202;52.136;5.592;2023-02-28T08:43:34;14.23;;;7.82;;
23988;SDS011;12202;52.136;5.592;2023-02-28T08:46:00;16.10;;;9.30;;
23988;SDS011;12202;52.136;5.592;2023-02-28T08:48:26;21.85;;;10.57;;
23988;SDS011;12202;52.136;5.592;2023-02-28T08:50:57;14.57;;;8.82;;
23988;SDS011;12202;52.136;5.592;2023-02-28T08:53:23;9.00;;;5.32;;
23988;SDS011;12202;52.136;5.592;2023-02-28T08:55:59;10.23;;;4.70;;
23988;SDS011;12202;52.136;5.592;2023-02-28T08:58:25;11.15;;;5.47;;
23988;SDS011;12202;52.136;5.592;2023-02-28T09:00:51;8.15;;;4.47;;
23988;SDS011;12202;52.136;5.592;2023-02-28T09:03:17;7.60;;;3.42;;
23988;SDS011;12202;52.136;5.592;2023-02-28T09:05:57;10.20;;;3.70;;
23988;SDS011;12202;52.136;5.592;2023-02-28T09:08:23;5.13;;;3.10;;
23988;SDS011;12202;52.136;5.592;2023-02-28T09:10:50;7.30;;;3.83;;
23988;SDS011;12202;52.136;5.592;2023-02-28T09:13:17;6.38;;;3.92;;
23988;SDS011;12202;52.136;5.592;2023-02-28T09:15:43;6.38;;;3.03;;
23988;SDS011;12202;52.136;5.592;2023-02-28T09:18:08;8.80;;;2.83;;
23988;SDS011;12202;52.136;5.592;2023-02-28T09:20:37;7.97;;;2.90;;
23988;SDS011;12202;52.136;5.592;2023-02-28T09:23:03;7.05;;;2.90;;
23988;SDS011;12202;52.136;5.592;2023-02-28T09:25:29;7.90;;;3.25;;
23988;SDS011;12202;52.136;5.592;2023-02-28T09:27:55;10.15;;;5.05;;
23988;SDS011;12202;52.136;5.592;2023-02-28T09:30:21;5.82;;;4.22;;
23988;SDS011;12202;52.136;5.592;2023-02-28T09:32:47;7.78;;;3.97;;
23988;SDS011;12202;52.136;5.592;2023-02-28T09:35:23;6.10;;;4.03;;
23988;SDS011;12202;52.136;5.592;2023-02-28T09:37:51;10.43;;;5.53;;
23988;SDS011;12202;52.136;5.592;2023-02-28T09:40:18;8.05;;;4.88;;
23988;SDS011;12202;52.136;5.592;2023-02-28T09:42:48;5.88;;;4.10;;
23988;SDS011;12202;52.136;5.592;2023-02-28T09:47:54;5.38;;;3.63;;
23988;SDS011;12202;52.136;5.592;2023-02-28T09:50:28;6.32;;;3.53;;
23988;SDS011;12202;52.136;5.592;2023-02-28T09:52:57;6.85;;;3.95;;
23988;SDS011;12202;52.136;5.592;2023-02-28T09:57:50;6.07;;;3.15;;
23988;SDS011;12202;52.136;5.592;2023-02-28T10:00:33;9.30;;;4.10;;
23988;SDS011;12202;52.136;5.592;2023-02-28T10:05:38;5.20;;;3.60;;
23988;SDS011;12202;52.136;5.592;2023-02-28T10:08:08;5.05;;;3.55;;
23988;SDS011;12202;52.136;5.592;2023-02-28T10:13:06;5.65;;;3.38;;
23988;SDS011;12202;52.136;5.592;2023-02-28T10:15:37;7.32;;;3.30;;
23988;SDS011;12202;52.136;5.592;2023-02-28T10:18:04;6.78;;;3.08;;
23988;SDS011;12202;52.136;5.592;2023-02-28T10:20:33;5.25;;;2.40;;
23988;SDS011;12202;52.136;5.592;2023-02-28T10:25:35;4.70;;;3.45;;
23988;SDS011;12202;52.136;5.592;2023-02-28T10:28:09;3.45;;;2.55;;
23988;SDS011;12202;52.136;5.592;2023-02-28T10:30:36;3.75;;;2.22;;
23988;SDS011;12202;52.136;5.592;2023-02-28T10:33:03;3.38;;;2.60;;
23988;SDS011;12202;52.136;5.592;2023-02-28T10:35:29;3.95;;;2.88;;
23988;SDS011;12202;52.136;5.592;2023-02-28T10:37:57;3.10;;;2.53;;
23988;SDS011;12202;52.136;5.592;2023-02-28T10:42:59;4.35;;;3.05;;
23988;SDS011;12202;52.136;5.592;2023-02-28T10:45:26;8.18;;;2.75;;
23988;SDS011;12202;52.136;5.592;2023-02-28T10:47:55;4.15;;;2.60;;
23988;SDS011;12202;52.136;5.592;2023-02-28T10:50:26;5.93;;;3.05;;
23988;SDS011;12202;52.136;5.592;2023-02-28T10:52:52;5.47;;;3.00;;
23988;SDS011;12202;52.136;5.592;2023-02-28T10:57:44;5.38;;;3.17;;
23988;SDS011;12202;52.136;5.592;2023-02-28T11:00:14;5.18;;;3.13;;
23988;SDS011;12202;52.136;5.592;2023-02-28T11:02:40;5.03;;;3.00;;
23988;SDS011;12202;52.136;5.592;2023-02-28T11:05:22;6.25;;;3.35;;
23988;SDS011;12202;52.136;5.592;2023-02-28T11:07:53;5.85;;;3.40;;
23988;SDS011;12202;52.136;5.592;2023-02-28T11:10:19;7.50;;;3.95;;
23988;SDS011;12202;52.136;5.592;2023-02-28T11:12:46;4.70;;;2.67;;
23988;SDS011;12202;52.136;5.592;2023-02-28T11:15:26;3.45;;;2.50;;
23988;SDS011;12202;52.136;5.592;2023-02-28T11:20:37;6.38;;;2.63;;
23988;SDS011;12202;52.136;5.592;2023-02-28T11:23:04;6.45;;;3.20;;
23988;SDS011;12202;52.136;5.592;2023-02-28T11:25:34;7.15;;;2.55;;
23988;SDS011;12202;52.136;5.592;2023-02-28T11:28:08;7.53;;;3.00;;
23988;SDS011;12202;52.136;5.592;2023-02-28T11:30:59;5.80;;;2.78;;
23988;SDS011;12202;52.136;5.592;2023-02-28T11:33:27;5.18;;;3.00;;
23988;SDS011;12202;52.136;5.592;2023-02-28T11:35:55;4.32;;;2.72;;
23988;SDS011;12202;52.136;5.592;2023-02-28T11:38:23;3.60;;;2.90;;
23988;SDS011;12202;52.136;5.592;2023-02-28T11:48:19;3.65;;;2.75;;
23988;SDS011;12202;52.136;5.592;2023-02-28T11:50:49;4.47;;;2.92;;
23988;SDS011;12202;52.136;5.592;2023-02-28T12:04:09;7.05;;;3.75;;
23988;SDS011;12202;52.136;5.592;2023-02-28T12:06:43;6.13;;;3.30;;
23988;SDS011;12202;52.136;5.592;2023-02-28T12:09:35;3.65;;;3.30;;
23988;SDS011;12202;52.136;5.592;2023-02-28T12:27:15;8.15;;;3.60;;
23988;SDS011;12202;52.136;5.592;2023-02-28T12:29:53;3.78;;;2.92;;
23988;SDS011;12202;52.136;5.592;2023-02-28T12:34:51;9.50;;;3.65;;
23988;SDS011;12202;52.136;5.592;2023-02-28T12:37:20;7.68;;;4.18;;
23988;SDS011;12202;52.136;5.592;2023-02-28T12:39:49;5.72;;;4.10;;
23988;SDS011;12202;52.136;5.592;2023-02-28T12:42:26;4.18;;;3.33;;
23988;SDS011;12202;52.136;5.592;2023-02-28T12:44:54;4.28;;;3.15;;
23988;SDS011;12202;52.136;5.592;2023-02-28T12:47:21;4.97;;;3.30;;
23988;SDS011;12202;52.136;5.592;2023-02-28T12:52:13;4.20;;;3.03;;
23988;SDS011;12202;52.136;5.592;2023-02-28T12:54:44;5.55;;;3.35;;
23988;SDS011;12202;52.136;5.592;2023-02-28T12:57:14;5.05;;;3.35;;
23988;SDS011;12202;52.136;5.592;2023-02-28T12:59:52;5.80;;;3.95;;
23988;SDS011;12202;52.136;5.592;2023-02-28T13:02:32;4.25;;;3.30;;
23988;SDS011;12202;52.136;5.592;2023-02-28T13:09:57;4.68;;;3.53;;
23988;SDS011;12202;52.136;5.592;2023-02-28T13:12:24;5.50;;;3.83;;
23988;SDS011;12202;52.136;5.592;2023-02-28T13:14:51;8.23;;;4.03;;
23988;SDS011;12202;52.136;5.592;2023-02-28T13:17:27;6.47;;;3.15;;
23988;SDS011;12202;52.136;5.592;2023-02-28T13:22:20;5.47;;;3.95;;
23988;SDS011;12202;52.136;5.592;2023-02-28T13:25:03;4.78;;;3.70;;
23988;SDS011;12202;52.136;5.592;2023-02-28T13:27:49;5.43;;;3.80;;
23988;SDS011;12202;52.136;5.592;2023-02-28T13:38:36;7.40;;;4.03;;
23988;SDS011;12202;52.136;5.592;2023-02-28T13:44:00;6.30;;;4.45;;
23988;SDS011;12202;52.136;5.592;2023-02-28T13:46:27;5.38;;;4.10;;
23988;SDS011;12202;52.136;5.592;2023-02-28T13:48:53;5.38;;;3.97;;
23988;SDS011;12202;52.136;5.592;2023-02-28T13:54:02;5.10;;;4.00;;
23988;SDS011;12202;52.136;5.592;2023-02-28T13:56:33;9.15;;;4.25;;
23988;SDS011;12202;52.136;5.592;2023-02-28T13:59:20;7.95;;;4.72;;
23988;SDS011;12202;52.136;5.592;2023-02-28T14:01:52;5.57;;;4.00;;
23988;SDS011;12202;52.136;5.592;2023-02-28T14:06:56;7.18;;;4.30;;
23988;SDS011;12202;52.136;5.592;2023-02-28T14:09:27;6.13;;;4.28;;
23988;SDS011;12202;52.136;5.592;2023-02-28T14:11:54;6.57;;;3.70;;
23988;SDS011;12202;52.136;5.592;2023-02-28T14:14:54;5.72;;;3.40;;
23988;SDS011;12202;52.136;5.592;2023-02-28T14:17:14;7.80;;;4.13;;
23988;SDS011;12202;52.136;5.592;2023-02-28T14:19:41;5.28;;;3.65;;
23988;SDS011;12202;52.136;5.592;2023-02-28T14:24:42;9.43;;;3.97;;
23988;SDS011;12202;52.136;5.592;2023-02-28T14:32:35;5.35;;;3.63;;
23988;SDS011;12202;52.136;5.592;2023-02-28T14:37:51;19.88;;;9.55;;
23988;SDS011;12202;52.136;5.592;2023-02-28T14:40:19;22.42;;;11.48;;
23988;SDS011;12202;52.136;5.592;2023-02-28T14:42:48;8.15;;;5.22;;
23988;SDS011;12202;52.136;5.592;2023-02-28T14:45:20;9.05;;;5.68;;
23988;SDS011;12202;52.136;5.592;2023-02-28T14:47:46;7.47;;;4.00;;
23988;SDS011;12202;52.136;5.592;2023-02-28T14:50:20;29.95;;;11.35;;
23988;SDS011;12202;52.136;5.592;2023-02-28T14:52:46;39.15;;;17.98;;
23988;SDS011;12202;52.136;5.592;2023-02-28T14:55:14;8.95;;;5.28;;
23988;SDS011;12202;52.136;5.592;2023-02-28T14:57:51;3.50;;;3.20;;
23988;SDS011;12202;52.136;5.592;2023-02-28T15:00:24;7.47;;;3.58;;
23988;SDS011;12202;52.136;5.592;2023-02-28T15:02:50;20.65;;;9.50;;
23988;SDS011;12202;52.136;5.592;2023-02-28T15:05:30;8.55;;;4.60;;
23988;SDS011;12202;52.136;5.592;2023-02-28T15:08:01;6.88;;;4.45;;
23988;SDS011;12202;52.136;5.592;2023-02-28T15:10:28;6.90;;;4.18;;
23988;SDS011;12202;52.136;5.592;2023-02-28T15:15:21;4.65;;;3.80;;
23988;SDS011;12202;52.136;5.592;2023-02-28T15:17:50;11.23;;;5.85;;
23988;SDS011;12202;52.136;5.592;2023-02-28T15:20:17;7.25;;;5.03;;
23988;SDS011;12202;52.136;5.592;2023-02-28T15:22:44;8.32;;;5.05;;
23988;SDS011;12202;52.136;5.592;2023-02-28T15:25:13;6.45;;;4.10;;
23988;SDS011;12202;52.136;5.592;2023-02-28T15:27:44;6.75;;;4.20;;
23988;SDS011;12202;52.136;5.592;2023-02-28T15:30:17;8.88;;;4.22;;
23988;SDS011;12202;52.136;5.592;2023-02-28T15:32:43;9.65;;;4.47;;
23988;SDS011;12202;52.136;5.592;2023-02-28T15:37:58;4.88;;;3.42;;
23988;SDS011;12202;52.136;5.592;2023-02-28T15:40:29;6.68;;;3.33;;
23988;SDS011;12202;52.136;5.592;2023-02-28T15:43:13;5.60;;;3.67;;
23988;SDS011;12202;52.136;5.592;2023-02-28T15:48:18;4.50;;;3.38;;
23988;SDS011;12202;52.136;5.592;2023-02-28T15:50:52;5.47;;;3.75;;
23988;SDS011;12202;52.136;5.592;2023-02-28T15:53:21;5.25;;;2.90;;
23988;SDS011;12202;52.136;5.592;2023-02-28T15:55:54;6.75;;;3.60;;
23988;SDS011;12202;52.136;5.592;2023-02-28T15:58:21;4.97;;;3.13;;
23988;SDS011;12202;52.136;5.592;2023-02-28T16:03:39;8.52;;;4.30;;
23988;SDS011;12202;52.136;5.592;2023-02-28T16:06:09;4.68;;;3.92;;
23988;SDS011;12202;52.136;5.592;2023-02-28T16:08:50;6.35;;;3.55;;
23988;SDS011;12202;52.136;5.592;2023-02-28T16:11:16;9.48;;;4.22;;
23988;SDS011;12202;52.136;5.592;2023-02-28T16:13:42;6.32;;;4.03;;
23988;SDS011;12202;52.136;5.592;2023-02-28T16:16:08;5.35;;;3.97;;
23988;SDS011;12202;52.136;5.592;2023-02-28T16:18:41;6.50;;;4.13;;
23988;SDS011;12202;52.136;5.592;2023-02-28T16:21:08;7.45;;;4.07;;
23988;SDS011;12202;52.136;5.592;2023-02-28T16:23:34;5.22;;;4.25;;
23988;SDS011;12202;52.136;5.592;2023-02-28T16:26:00;4.88;;;4.20;;
23988;SDS011;12202;52.136;5.592;2023-02-28T16:28:33;6.75;;;4.03;;
23988;SDS011;12202;52.136;5.592;2023-02-28T16:31:00;5.47;;;4.00;;
23988;SDS011;12202;52.136;5.592;2023-02-28T16:33:27;7.13;;;3.63;;
23988;SDS011;12202;52.136;5.592;2023-02-28T16:35:53;10.55;;;5.80;;
23988;SDS011;12202;52.136;5.592;2023-02-28T16:38:19;6.38;;;4.15;;
23988;SDS011;12202;52.136;5.592;2023-02-28T16:40:46;9.38;;;3.90;;
23988;SDS011;12202;52.136;5.592;2023-02-28T16:43:15;8.55;;;4.75;;
23988;SDS011;12202;52.136;5.592;2023-02-28T16:45:42;7.82;;;4.15;;
23988;SDS011;12202;52.136;5.592;2023-02-28T16:48:11;6.82;;;4.82;;
23988;SDS011;12202;52.136;5.592;2023-02-28T16:50:41;8.05;;;4.68;;
23988;SDS011;12202;52.136;5.592;2023-02-28T16:53:09;6.10;;;4.85;;
23988;SDS011;12202;52.136;5.592;2023-02-28T16:55:35;8.00;;;4.18;;
23988;SDS011;12202;52.136;5.592;2023-02-28T16:58:02;7.10;;;4.45;;
23988;SDS011;12202;52.136;5.592;2023-02-28T17:00:28;5.75;;;3.92;;
23988;SDS011;12202;52.136;5.592;2023-02-28T17:02:55;8.55;;;5.00;;
23988;SDS011;12202;52.136;5.592;2023-02-28T17:05:21;10.63;;;5.28;;